sensor_id;sensor_type;location;lat;lon;timestamp;P1;durP1;ratioP1;P2;durP2;ratioP2
65691;SDS011;52411;52.716;6.696;2022-09-20T00:01:17;6.65;;;2.15;;
65691;SDS011;52411;52.716;6.696;2022-09-20T00:03:46;7.03;;;2.22;;
65691;SDS011;52411;52.716;6.696;2022-09-20T00:06:14;9.18;;;1.90;;
65691;SDS011;52411;52.716;6.696;2022-09-20T00:08:42;8.40;;;2.65;;
65691;SDS011;52411;52.716;6.696;2022-09-20T00:11:10;6.07;;;2.20;;
65691;SDS011;52411;52.716;6.696;2022-09-20T00:13:44;9.60;;;2.17;;
65691;SDS011;52411;52.716;6.696;2022-09-20T00:16:13;7.75;;;1.70;;
65691;SDS011;52411;52.716;6.696;2022-09-20T00:18:41;7.45;;;2.00;;
65691;SDS011;52411;52.716;6.696;2022-09-20T00:21:10;10.80;;;2.42;;
65691;SDS011;52411;52.716;6.696;2022-09-20T00:23:41;5.38;;;1.70;;
65691;SDS011;52411;52.716;6.696;2022-09-20T00:26:06;8.48;;;1.92;;
65691;SDS011;52411;52.716;6.696;2022-09-20T00:28:32;9.88;;;1.98;;
65691;SDS011;52411;52.716;6.696;2022-09-20T00:30:58;12.18;;;2.10;;
65691;SDS011;52411;52.716;6.696;2022-09-20T00:33:24;13.63;;;2.13;;
65691;SDS011;52411;52.716;6.696;2022-09-20T00:36:13;8.07;;;2.13;;
65691;SDS011;52411;52.716;6.696;2022-09-20T00:38:39;11.07;;;1.92;;
65691;SDS011;52411;52.716;6.696;2022-09-20T00:41:05;9.20;;;2.20;;
65691;SDS011;52411;52.716;6.696;2022-09-20T00:43:38;7.97;;;2.08;;
65691;SDS011;52411;52.716;6.696;2022-09-20T00:46:28;10.65;;;2.10;;
65691;SDS011;52411;52.716;6.696;2022-09-20T00:49:19;10.40;;;2.33;;
65691;SDS011;52411;52.716;6.696;2022-09-20T00:51:57;8.90;;;2.15;;
65691;SDS011;52411;52.716;6.696;2022-09-20T00:54:25;6.65;;;1.83;;
65691;SDS011;52411;52.716;6.696;2022-09-20T00:56:52;10.35;;;2.55;;
65691;SDS011;52411;52.716;6.696;2022-09-20T00:59:21;14.32;;;2.38;;
65691;SDS011;52411;52.716;6.696;2022-09-20T01:01:51;12.38;;;2.20;;
65691;SDS011;52411;52.716;6.696;2022-09-20T01:04:21;12.70;;;1.90;;
65691;SDS011;52411;52.716;6.696;2022-09-20T01:06:52;7.38;;;2.00;;
65691;SDS011;52411;52.716;6.696;2022-09-20T01:09:20;11.30;;;2.13;;
65691;SDS011;52411;52.716;6.696;2022-09-20T01:11:46;8.23;;;2.20;;
65691;SDS011;52411;52.716;6.696;2022-09-20T01:14:13;11.57;;;2.30;;
65691;SDS011;52411;52.716;6.696;2022-09-20T01:16:41;11.15;;;2.60;;
65691;SDS011;52411;52.716;6.696;2022-09-20T01:19:24;8.43;;;2.13;;
65691;SDS011;52411;52.716;6.696;2022-09-20T01:22:02;7.13;;;2.05;;
65691;SDS011;52411;52.716;6.696;2022-09-20T01:27:06;10.43;;;2.47;;
65691;SDS011;52411;52.716;6.696;2022-09-20T01:30:05;6.85;;;2.08;;
65691;SDS011;52411;52.716;6.696;2022-09-20T01:33:04;11.35;;;2.10;;
65691;SDS011;52411;52.716;6.696;2022-09-20T01:35:33;9.60;;;2.13;;
65691;SDS011;52411;52.716;6.696;2022-09-20T01:45:47;7.03;;;2.10;;
65691;SDS011;52411;52.716;6.696;2022-09-20T01:48:33;10.35;;;2.10;;
65691;SDS011;52411;52.716;6.696;2022-09-20T01:54:16;8.75;;;1.98;;
65691;SDS011;52411;52.716;6.696;2022-09-20T01:57:11;8.50;;;2.28;;
65691;SDS011;52411;52.716;6.696;2022-09-20T02:08:15;9.00;;;2.20;;
65691;SDS011;52411;52.716;6.696;2022-09-20T02:11:02;9.60;;;2.50;;
65691;SDS011;52411;52.716;6.696;2022-09-20T02:13:29;10.18;;;2.80;;
65691;SDS011;52411;52.716;6.696;2022-09-20T02:21:37;8.68;;;2.70;;
65691;SDS011;52411;52.716;6.696;2022-09-20T02:24:27;9.00;;;2.10;;
65691;SDS011;52411;52.716;6.696;2022-09-20T02:29:57;11.68;;;2.10;;
65691;SDS011;52411;52.716;6.696;2022-09-20T02:32:33;15.45;;;2.40;;
65691;SDS011;52411;52.716;6.696;2022-09-20T02:35:26;7.75;;;2.22;;
65691;SDS011;52411;52.716;6.696;2022-09-20T02:38:14;7.82;;;2.08;;
65691;SDS011;52411;52.716;6.696;2022-09-20T02:43:25;10.10;;;2.47;;
65691;SDS011;52411;52.716;6.696;2022-09-20T02:49:01;9.23;;;2.50;;
65691;SDS011;52411;52.716;6.696;2022-09-20T02:52:00;11.38;;;2.50;;
65691;SDS011;52411;52.716;6.696;2022-09-20T02:54:48;7.13;;;2.15;;
65691;SDS011;52411;52.716;6.696;2022-09-20T02:57:29;12.77;;;2.70;;
65691;SDS011;52411;52.716;6.696;2022-09-20T03:02:29;10.95;;;2.65;;
65691;SDS011;52411;52.716;6.696;2022-09-20T03:05:33;8.45;;;2.60;;
65691;SDS011;52411;52.716;6.696;2022-09-20T03:08:23;6.90;;;2.05;;
65691;SDS011;52411;52.716;6.696;2022-09-20T03:13:25;10.13;;;2.08;;
65691;SDS011;52411;52.716;6.696;2022-09-20T03:16:15;8.75;;;2.30;;
65691;SDS011;52411;52.716;6.696;2022-09-20T03:21:37;10.30;;;2.25;;
65691;SDS011;52411;52.716;6.696;2022-09-20T03:24:21;8.30;;;2.58;;
65691;SDS011;52411;52.716;6.696;2022-09-20T03:27:04;14.60;;;2.70;;
65691;SDS011;52411;52.716;6.696;2022-09-20T03:38:00;9.73;;;2.85;;
65691;SDS011;52411;52.716;6.696;2022-09-20T03:43:46;8.48;;;2.28;;
65691;SDS011;52411;52.716;6.696;2022-09-20T03:46:25;7.57;;;2.78;;
65691;SDS011;52411;52.716;6.696;2022-09-20T03:52:08;8.43;;;2.40;;
65691;SDS011;52411;52.716;6.696;2022-09-20T04:03:22;9.63;;;2.95;;
65691;SDS011;52411;52.716;6.696;2022-09-20T04:05:59;10.70;;;2.70;;
65691;SDS011;52411;52.716;6.696;2022-09-20T04:11:17;9.93;;;2.58;;
65691;SDS011;52411;52.716;6.696;2022-09-20T04:13:58;8.75;;;2.88;;
65691;SDS011;52411;52.716;6.696;2022-09-20T04:17:01;10.38;;;2.63;;
65691;SDS011;52411;52.716;6.696;2022-09-20T04:24:43;7.90;;;2.78;;
65691;SDS011;52411;52.716;6.696;2022-09-20T04:27:27;7.63;;;2.13;;
65691;SDS011;52411;52.716;6.696;2022-09-20T04:30:01;8.80;;;2.33;;
65691;SDS011;52411;52.716;6.696;2022-09-20T04:32:38;8.65;;;2.70;;
65691;SDS011;52411;52.716;6.696;2022-09-20T04:38:04;10.43;;;2.42;;
65691;SDS011;52411;52.716;6.696;2022-09-20T04:40:50;12.02;;;2.80;;
65691;SDS011;52411;52.716;6.696;2022-09-20T04:55:28;7.38;;;3.10;;
65691;SDS011;52411;52.716;6.696;2022-09-20T05:15:10;5.95;;;2.42;;
65691;SDS011;52411;52.716;6.696;2022-09-20T05:18:14;8.73;;;2.60;;
65691;SDS011;52411;52.716;6.696;2022-09-20T05:21:06;5.50;;;2.30;;
65691;SDS011;52411;52.716;6.696;2022-09-20T05:29:34;6.07;;;2.35;;
65691;SDS011;52411;52.716;6.696;2022-09-20T05:35:01;7.63;;;2.28;;
65691;SDS011;52411;52.716;6.696;2022-09-20T05:40:44;5.70;;;2.25;;
65691;SDS011;52411;52.716;6.696;2022-09-20T05:49:13;8.70;;;2.50;;
65691;SDS011;52411;52.716;6.696;2022-09-20T06:00:40;6.40;;;2.20;;
65691;SDS011;52411;52.716;6.696;2022-09-20T06:03:29;8.50;;;2.38;;
65691;SDS011;52411;52.716;6.696;2022-09-20T06:11:59;7.85;;;2.58;;
65691;SDS011;52411;52.716;6.696;2022-09-20T06:14:42;10.65;;;2.70;;
65691;SDS011;52411;52.716;6.696;2022-09-20T06:17:30;10.88;;;2.60;;
65691;SDS011;52411;52.716;6.696;2022-09-20T06:22:52;8.40;;;2.72;;
65691;SDS011;52411;52.716;6.696;2022-09-20T06:28:05;13.27;;;2.85;;
65691;SDS011;52411;52.716;6.696;2022-09-20T06:30:43;10.15;;;2.80;;
65691;SDS011;52411;52.716;6.696;2022-09-20T06:46:28;7.18;;;2.60;;
65691;SDS011;52411;52.716;6.696;2022-09-20T06:48:55;4.82;;;2.38;;
65691;SDS011;52411;52.716;6.696;2022-09-20T06:51:22;5.03;;;2.55;;
65691;SDS011;52411;52.716;6.696;2022-09-20T06:53:49;15.55;;;2.88;;
65691;SDS011;52411;52.716;6.696;2022-09-20T06:56:19;10.05;;;2.83;;
65691;SDS011;52411;52.716;6.696;2022-09-20T06:58:47;6.22;;;2.67;;
65691;SDS011;52411;52.716;6.696;2022-09-20T07:01:13;8.32;;;2.70;;
65691;SDS011;52411;52.716;6.696;2022-09-20T07:03:40;8.52;;;2.65;;
65691;SDS011;52411;52.716;6.696;2022-09-20T07:06:06;5.32;;;2.35;;
65691;SDS011;52411;52.716;6.696;2022-09-20T07:08:33;10.10;;;2.90;;
65691;SDS011;52411;52.716;6.696;2022-09-20T07:11:07;6.43;;;2.53;;
65691;SDS011;52411;52.716;6.696;2022-09-20T07:13:36;4.80;;;2.55;;
65691;SDS011;52411;52.716;6.696;2022-09-20T07:16:03;7.72;;;3.25;;
65691;SDS011;52411;52.716;6.696;2022-09-20T07:18:33;8.82;;;2.83;;
65691;SDS011;52411;52.716;6.696;2022-09-20T07:20:59;10.68;;;2.58;;
65691;SDS011;52411;52.716;6.696;2022-09-20T07:23:26;4.82;;;2.75;;
65691;SDS011;52411;52.716;6.696;2022-09-20T07:25:54;10.98;;;2.75;;
65691;SDS011;52411;52.716;6.696;2022-09-20T07:28:22;10.18;;;2.90;;
65691;SDS011;52411;52.716;6.696;2022-09-20T07:30:48;14.45;;;3.33;;
65691;SDS011;52411;52.716;6.696;2022-09-20T07:33:14;7.53;;;2.97;;
65691;SDS011;52411;52.716;6.696;2022-09-20T07:35:49;6.70;;;3.10;;
65691;SDS011;52411;52.716;6.696;2022-09-20T07:38:18;8.50;;;3.30;;
65691;SDS011;52411;52.716;6.696;2022-09-20T07:40:44;6.43;;;2.85;;
65691;SDS011;52411;52.716;6.696;2022-09-20T07:43:10;9.13;;;3.33;;
65691;SDS011;52411;52.716;6.696;2022-09-20T07:45:36;9.40;;;3.65;;
65691;SDS011;52411;52.716;6.696;2022-09-20T07:48:06;7.60;;;3.13;;
65691;SDS011;52411;52.716;6.696;2022-09-20T07:50:33;10.02;;;3.30;;
65691;SDS011;52411;52.716;6.696;2022-09-20T07:52:59;11.23;;;3.67;;
65691;SDS011;52411;52.716;6.696;2022-09-20T07:55:25;9.60;;;3.50;;
65691;SDS011;52411;52.716;6.696;2022-09-20T07:57:51;8.23;;;3.30;;
65691;SDS011;52411;52.716;6.696;2022-09-20T08:00:18;9.80;;;3.53;;
65691;SDS011;52411;52.716;6.696;2022-09-20T08:02:44;11.68;;;4.13;;
65691;SDS011;52411;52.716;6.696;2022-09-20T08:05:10;13.23;;;3.35;;
65691;SDS011;52411;52.716;6.696;2022-09-20T08:07:35;10.00;;;3.60;;
65691;SDS011;52411;52.716;6.696;2022-09-20T08:10:02;7.68;;;3.05;;
65691;SDS011;52411;52.716;6.696;2022-09-20T08:12:29;6.00;;;2.70;;
65691;SDS011;52411;52.716;6.696;2022-09-20T08:14:54;7.82;;;2.58;;
65691;SDS011;52411;52.716;6.696;2022-09-20T08:17:20;7.85;;;2.25;;
65691;SDS011;52411;52.716;6.696;2022-09-20T08:19:46;9.68;;;1.92;;
65691;SDS011;52411;52.716;6.696;2022-09-20T08:22:11;7.00;;;1.88;;
65691;SDS011;52411;52.716;6.696;2022-09-20T08:24:37;5.57;;;2.30;;
65691;SDS011;52411;52.716;6.696;2022-09-20T08:27:03;6.45;;;1.40;;
65691;SDS011;52411;52.716;6.696;2022-09-20T08:29:29;3.80;;;1.70;;
65691;SDS011;52411;52.716;6.696;2022-09-20T08:31:55;5.82;;;1.48;;
65691;SDS011;52411;52.716;6.696;2022-09-20T08:34:22;7.75;;;1.70;;
65691;SDS011;52411;52.716;6.696;2022-09-20T08:36:48;8.55;;;1.63;;
65691;SDS011;52411;52.716;6.696;2022-09-20T08:39:16;8.82;;;1.55;;
65691;SDS011;52411;52.716;6.696;2022-09-20T08:41:44;5.30;;;1.30;;
65691;SDS011;52411;52.716;6.696;2022-09-20T08:44:22;7.07;;;1.60;;
65691;SDS011;52411;52.716;6.696;2022-09-20T08:47:04;5.50;;;1.50;;
65691;SDS011;52411;52.716;6.696;2022-09-20T08:49:39;3.38;;;1.13;;
65691;SDS011;52411;52.716;6.696;2022-09-20T08:52:05;4.82;;;1.20;;
65691;SDS011;52411;52.716;6.696;2022-09-20T08:54:31;5.28;;;1.10;;
65691;SDS011;52411;52.716;6.696;2022-09-20T08:57:03;4.90;;;1.45;;
65691;SDS011;52411;52.716;6.696;2022-09-20T08:59:36;2.88;;;1.25;;
65691;SDS011;52411;52.716;6.696;2022-09-20T09:02:02;2.72;;;1.30;;
65691;SDS011;52411;52.716;6.696;2022-09-20T09:04:35;8.00;;;1.48;;
65691;SDS011;52411;52.716;6.696;2022-09-20T09:07:01;5.60;;;1.30;;
65691;SDS011;52411;52.716;6.696;2022-09-20T09:09:28;8.90;;;1.13;;
65691;SDS011;52411;52.716;6.696;2022-09-20T09:11:55;5.32;;;1.27;;
65691;SDS011;52411;52.716;6.696;2022-09-20T09:17:09;3.20;;;1.15;;
65691;SDS011;52411;52.716;6.696;2022-09-20T09:19:58;4.10;;;1.35;;
65691;SDS011;52411;52.716;6.696;2022-09-20T09:22:31;3.97;;;1.25;;
65691;SDS011;52411;52.716;6.696;2022-09-20T09:25:24;6.72;;;1.40;;
65691;SDS011;52411;52.716;6.696;2022-09-20T09:33:16;3.72;;;1.27;;
65691;SDS011;52411;52.716;6.696;2022-09-20T09:38:24;4.95;;;0.73;;
65691;SDS011;52411;52.716;6.696;2022-09-20T09:40:52;5.13;;;1.27;;
65691;SDS011;52411;52.716;6.696;2022-09-20T09:43:21;5.55;;;1.17;;
65691;SDS011;52411;52.716;6.696;2022-09-20T09:45:51;5.75;;;1.20;;
65691;SDS011;52411;52.716;6.696;2022-09-20T09:51:14;7.25;;;2.53;;
65691;SDS011;52411;52.716;6.696;2022-09-20T09:53:42;3.08;;;1.00;;
65691;SDS011;52411;52.716;6.696;2022-09-20T09:56:16;2.80;;;1.10;;
65691;SDS011;52411;52.716;6.696;2022-09-20T09:59:01;3.85;;;1.48;;
65691;SDS011;52411;52.716;6.696;2022-09-20T10:07:13;5.13;;;1.33;;
65691;SDS011;52411;52.716;6.696;2022-09-20T10:10:12;2.83;;;1.00;;
65691;SDS011;52411;52.716;6.696;2022-09-20T10:13:12;6.90;;;1.50;;
65691;SDS011;52411;52.716;6.696;2022-09-20T10:16:36;8.30;;;1.70;;
65691;SDS011;52411;52.716;6.696;2022-09-20T10:21:38;4.90;;;1.30;;
65691;SDS011;52411;52.716;6.696;2022-09-20T10:32:08;4.85;;;1.17;;
65691;SDS011;52411;52.716;6.696;2022-09-20T10:35:00;5.47;;;1.20;;
65691;SDS011;52411;52.716;6.696;2022-09-20T10:37:52;5.18;;;1.20;;
65691;SDS011;52411;52.716;6.696;2022-09-20T10:40:39;5.07;;;1.20;;
65691;SDS011;52411;52.716;6.696;2022-09-20T10:46:33;6.25;;;1.20;;
65691;SDS011;52411;52.716;6.696;2022-09-20T10:49:01;4.40;;;1.10;;
65691;SDS011;52411;52.716;6.696;2022-09-20T10:57:20;3.40;;;0.90;;
65691;SDS011;52411;52.716;6.696;2022-09-20T11:03:03;3.92;;;0.75;;
65691;SDS011;52411;52.716;6.696;2022-09-20T11:05:58;2.92;;;0.80;;
65691;SDS011;52411;52.716;6.696;2022-09-20T11:08:45;6.18;;;1.20;;
65691;SDS011;52411;52.716;6.696;2022-09-20T11:11:20;3.15;;;1.23;;
65691;SDS011;52411;52.716;6.696;2022-09-20T11:13:57;3.95;;;1.10;;
65691;SDS011;52411;52.716;6.696;2022-09-20T11:19:17;3.40;;;1.00;;
65691;SDS011;52411;52.716;6.696;2022-09-20T11:24:24;13.35;;;2.63;;
65691;SDS011;52411;52.716;6.696;2022-09-20T11:29:35;3.47;;;1.00;;
65691;SDS011;52411;52.716;6.696;2022-09-20T11:32:11;6.70;;;1.63;;
65691;SDS011;52411;52.716;6.696;2022-09-20T11:34:48;1.33;;;0.80;;
65691;SDS011;52411;52.716;6.696;2022-09-20T11:37:28;2.05;;;0.80;;
65691;SDS011;52411;52.716;6.696;2022-09-20T11:39:59;1.25;;;0.70;;
65691;SDS011;52411;52.716;6.696;2022-09-20T11:42:36;1.98;;;0.85;;
65691;SDS011;52411;52.716;6.696;2022-09-20T11:45:05;4.05;;;1.10;;
65691;SDS011;52411;52.716;6.696;2022-09-20T11:55:32;2.90;;;1.00;;
65691;SDS011;52411;52.716;6.696;2022-09-20T11:58:24;2.33;;;0.70;;
65691;SDS011;52411;52.716;6.696;2022-09-20T12:00:52;5.72;;;1.30;;
65691;SDS011;52411;52.716;6.696;2022-09-20T12:03:33;3.83;;;1.00;;
65691;SDS011;52411;52.716;6.696;2022-09-20T12:08:32;3.53;;;1.20;;
65691;SDS011;52411;52.716;6.696;2022-09-20T12:11:07;4.03;;;1.00;;
65691;SDS011;52411;52.716;6.696;2022-09-20T12:13:38;3.60;;;0.95;;
65691;SDS011;52411;52.716;6.696;2022-09-20T12:16:16;2.63;;;0.90;;
65691;SDS011;52411;52.716;6.696;2022-09-20T12:19:09;5.30;;;1.20;;
65691;SDS011;52411;52.716;6.696;2022-09-20T12:24:26;4.20;;;1.13;;
65691;SDS011;52411;52.716;6.696;2022-09-20T12:27:00;3.70;;;1.20;;
65691;SDS011;52411;52.716;6.696;2022-09-20T12:32:32;5.22;;;1.55;;
65691;SDS011;52411;52.716;6.696;2022-09-20T12:38:24;6.32;;;1.63;;
65691;SDS011;52411;52.716;6.696;2022-09-20T12:43:29;3.45;;;1.33;;
65691;SDS011;52411;52.716;6.696;2022-09-20T12:45:57;5.05;;;1.30;;
65691;SDS011;52411;52.716;6.696;2022-09-20T12:48:23;6.45;;;1.30;;
65691;SDS011;52411;52.716;6.696;2022-09-20T12:51:03;6.90;;;1.02;;
65691;SDS011;52411;52.716;6.696;2022-09-20T12:53:57;3.75;;;1.20;;
65691;SDS011;52411;52.716;6.696;2022-09-20T12:56:33;4.93;;;1.30;;
65691;SDS011;52411;52.716;6.696;2022-09-20T12:59:01;2.75;;;1.05;;
65691;SDS011;52411;52.716;6.696;2022-09-20T13:01:34;5.55;;;1.10;;
65691;SDS011;52411;52.716;6.696;2022-09-20T13:09:57;6.78;;;1.20;;
65691;SDS011;52411;52.716;6.696;2022-09-20T13:12:25;3.42;;;1.08;;
65691;SDS011;52411;52.716;6.696;2022-09-20T13:14:52;4.80;;;1.08;;
65691;SDS011;52411;52.716;6.696;2022-09-20T13:17:21;4.20;;;1.10;;
65691;SDS011;52411;52.716;6.696;2022-09-20T13:19:51;5.40;;;1.17;;
65691;SDS011;52411;52.716;6.696;2022-09-20T13:24:57;3.50;;;1.23;;
65691;SDS011;52411;52.716;6.696;2022-09-20T13:27:47;4.70;;;0.95;;
65691;SDS011;52411;52.716;6.696;2022-09-20T13:30:16;7.53;;;1.20;;
65691;SDS011;52411;52.716;6.696;2022-09-20T13:32:50;4.25;;;1.48;;
65691;SDS011;52411;52.716;6.696;2022-09-20T13:40:19;2.97;;;1.20;;
65691;SDS011;52411;52.716;6.696;2022-09-20T13:42:50;4.80;;;1.10;;
65691;SDS011;52411;52.716;6.696;2022-09-20T13:45:18;3.75;;;0.88;;
65691;SDS011;52411;52.716;6.696;2022-09-20T13:47:50;5.38;;;1.17;;
65691;SDS011;52411;52.716;6.696;2022-09-20T13:53:12;6.13;;;1.30;;
65691;SDS011;52411;52.716;6.696;2022-09-20T13:55:39;3.88;;;1.00;;
65691;SDS011;52411;52.716;6.696;2022-09-20T14:00:57;8.18;;;1.20;;
65691;SDS011;52411;52.716;6.696;2022-09-20T14:03:25;3.50;;;1.00;;
65691;SDS011;52411;52.716;6.696;2022-09-20T14:05:53;4.35;;;1.00;;
65691;SDS011;52411;52.716;6.696;2022-09-20T14:13:46;6.40;;;1.38;;
65691;SDS011;52411;52.716;6.696;2022-09-20T14:16:15;7.93;;;1.30;;
65691;SDS011;52411;52.716;6.696;2022-09-20T14:18:42;3.30;;;0.98;;
65691;SDS011;52411;52.716;6.696;2022-09-20T14:21:11;5.43;;;1.10;;
65691;SDS011;52411;52.716;6.696;2022-09-20T14:29:38;7.75;;;1.60;;
65691;SDS011;52411;52.716;6.696;2022-09-20T14:32:10;6.07;;;1.23;;
65691;SDS011;52411;52.716;6.696;2022-09-20T14:34:44;5.38;;;1.33;;
65691;SDS011;52411;52.716;6.696;2022-09-20T14:37:24;4.57;;;1.00;;
65691;SDS011;52411;52.716;6.696;2022-09-20T14:40:03;4.70;;;1.17;;
65691;SDS011;52411;52.716;6.696;2022-09-20T14:42:40;3.45;;;0.70;;
65691;SDS011;52411;52.716;6.696;2022-09-20T14:45:22;3.40;;;0.90;;
65691;SDS011;52411;52.716;6.696;2022-09-20T14:50:41;4.43;;;0.70;;
65691;SDS011;52411;52.716;6.696;2022-09-20T14:55:53;2.80;;;0.90;;
65691;SDS011;52411;52.716;6.696;2022-09-20T14:58:18;2.85;;;0.80;;
65691;SDS011;52411;52.716;6.696;2022-09-20T15:01:15;3.88;;;0.80;;
65691;SDS011;52411;52.716;6.696;2022-09-20T15:03:47;4.72;;;0.93;;
65691;SDS011;52411;52.716;6.696;2022-09-20T15:06:14;4.30;;;1.40;;
65691;SDS011;52411;52.716;6.696;2022-09-20T15:08:40;3.45;;;0.85;;
65691;SDS011;52411;52.716;6.696;2022-09-20T15:11:06;3.53;;;0.77;;
65691;SDS011;52411;52.716;6.696;2022-09-20T15:13:38;4.25;;;1.13;;
65691;SDS011;52411;52.716;6.696;2022-09-20T15:16:04;3.72;;;0.88;;
65691;SDS011;52411;52.716;6.696;2022-09-20T15:18:34;6.90;;;1.50;;
65691;SDS011;52411;52.716;6.696;2022-09-20T15:21:04;4.55;;;1.08;;
65691;SDS011;52411;52.716;6.696;2022-09-20T15:23:30;4.57;;;0.95;;
65691;SDS011;52411;52.716;6.696;2022-09-20T15:25:56;6.00;;;0.93;;
65691;SDS011;52411;52.716;6.696;2022-09-20T15:28:22;3.35;;;1.10;;
65691;SDS011;52411;52.716;6.696;2022-09-20T15:30:49;2.42;;;0.90;;
65691;SDS011;52411;52.716;6.696;2022-09-20T15:33:16;4.00;;;0.90;;
65691;SDS011;52411;52.716;6.696;2022-09-20T15:35:43;3.92;;;0.95;;
65691;SDS011;52411;52.716;6.696;2022-09-20T15:38:10;9.38;;;1.40;;
65691;SDS011;52411;52.716;6.696;2022-09-20T15:40:39;4.20;;;1.30;;
65691;SDS011;52411;52.716;6.696;2022-09-20T15:43:06;2.47;;;0.83;;
65691;SDS011;52411;52.716;6.696;2022-09-20T15:45:35;5.22;;;1.10;;
65691;SDS011;52411;52.716;6.696;2022-09-20T15:48:13;6.30;;;0.90;;
65691;SDS011;52411;52.716;6.696;2022-09-20T15:50:38;4.90;;;1.40;;
65691;SDS011;52411;52.716;6.696;2022-09-20T15:53:06;4.15;;;1.10;;
65691;SDS011;52411;52.716;6.696;2022-09-20T15:55:35;3.13;;;0.80;;
65691;SDS011;52411;52.716;6.696;2022-09-20T15:58:00;3.75;;;1.17;;
65691;SDS011;52411;52.716;6.696;2022-09-20T16:00:27;5.60;;;1.13;;
65691;SDS011;52411;52.716;6.696;2022-09-20T16:02:53;4.53;;;1.00;;
65691;SDS011;52411;52.716;6.696;2022-09-20T16:05:19;5.80;;;0.98;;
65691;SDS011;52411;52.716;6.696;2022-09-20T16:07:44;3.72;;;1.40;;
65691;SDS011;52411;52.716;6.696;2022-09-20T16:10:11;2.25;;;1.10;;
65691;SDS011;52411;52.716;6.696;2022-09-20T16:12:36;5.82;;;1.30;;
65691;SDS011;52411;52.716;6.696;2022-09-20T16:15:02;6.85;;;1.10;;
65691;SDS011;52411;52.716;6.696;2022-09-20T16:17:28;5.50;;;1.23;;
65691;SDS011;52411;52.716;6.696;2022-09-20T16:20:12;4.65;;;1.27;;
65691;SDS011;52411;52.716;6.696;2022-09-20T16:22:37;5.28;;;1.33;;
65691;SDS011;52411;52.716;6.696;2022-09-20T16:25:03;5.15;;;1.20;;
65691;SDS011;52411;52.716;6.696;2022-09-20T16:27:30;5.20;;;1.00;;
65691;SDS011;52411;52.716;6.696;2022-09-20T16:29:58;5.55;;;1.20;;
65691;SDS011;52411;52.716;6.696;2022-09-20T16:32:24;3.13;;;1.15;;
65691;SDS011;52411;52.716;6.696;2022-09-20T16:34:50;3.75;;;1.00;;
65691;SDS011;52411;52.716;6.696;2022-09-20T16:37:18;3.88;;;1.00;;
65691;SDS011;52411;52.716;6.696;2022-09-20T16:39:46;3.47;;;1.23;;
65691;SDS011;52411;52.716;6.696;2022-09-20T16:42:12;4.30;;;1.05;;
65691;SDS011;52411;52.716;6.696;2022-09-20T16:44:39;4.75;;;1.27;;
65691;SDS011;52411;52.716;6.696;2022-09-20T16:47:07;6.60;;;1.40;;
65691;SDS011;52411;52.716;6.696;2022-09-20T16:49:42;3.20;;;0.95;;
65691;SDS011;52411;52.716;6.696;2022-09-20T16:52:08;2.90;;;0.90;;
65691;SDS011;52411;52.716;6.696;2022-09-20T16:54:35;6.53;;;1.33;;
65691;SDS011;52411;52.716;6.696;2022-09-20T16:57:01;7.32;;;3.53;;
65691;SDS011;52411;52.716;6.696;2022-09-20T16:59:27;3.40;;;1.10;;
65691;SDS011;52411;52.716;6.696;2022-09-20T17:01:53;5.82;;;1.55;;
65691;SDS011;52411;52.716;6.696;2022-09-20T17:04:19;3.17;;;1.00;;
65691;SDS011;52411;52.716;6.696;2022-09-20T17:06:45;5.10;;;1.00;;
65691;SDS011;52411;52.716;6.696;2022-09-20T17:09:12;7.10;;;1.30;;
65691;SDS011;52411;52.716;6.696;2022-09-20T17:11:39;4.75;;;1.30;;
65691;SDS011;52411;52.716;6.696;2022-09-20T17:14:10;7.85;;;1.40;;
65691;SDS011;52411;52.716;6.696;2022-09-20T17:16:37;3.97;;;1.30;;
65691;SDS011;52411;52.716;6.696;2022-09-20T17:19:08;6.03;;;1.50;;
65691;SDS011;52411;52.716;6.696;2022-09-20T17:24:02;8.07;;;1.65;;
65691;SDS011;52411;52.716;6.696;2022-09-20T17:26:32;6.30;;;1.38;;
65691;SDS011;52411;52.716;6.696;2022-09-20T17:29:01;6.55;;;1.33;;
65691;SDS011;52411;52.716;6.696;2022-09-20T17:31:31;4.10;;;1.30;;
65691;SDS011;52411;52.716;6.696;2022-09-20T17:33:59;6.55;;;2.47;;
65691;SDS011;52411;52.716;6.696;2022-09-20T17:36:28;4.70;;;1.40;;
65691;SDS011;52411;52.716;6.696;2022-09-20T17:39:03;3.60;;;1.40;;
65691;SDS011;52411;52.716;6.696;2022-09-20T17:41:29;4.85;;;1.42;;
65691;SDS011;52411;52.716;6.696;2022-09-20T17:43:57;6.57;;;1.52;;
65691;SDS011;52411;52.716;6.696;2022-09-20T17:46:24;5.00;;;1.27;;
65691;SDS011;52411;52.716;6.696;2022-09-20T17:48:54;4.95;;;1.27;;
65691;SDS011;52411;52.716;6.696;2022-09-20T17:53:52;4.13;;;1.50;;
65691;SDS011;52411;52.716;6.696;2022-09-20T17:56:19;6.10;;;1.58;;
65691;SDS011;52411;52.716;6.696;2022-09-20T17:58:48;3.83;;;1.35;;
65691;SDS011;52411;52.716;6.696;2022-09-20T18:01:15;4.53;;;1.50;;
65691;SDS011;52411;52.716;6.696;2022-09-20T18:03:44;3.80;;;1.40;;
65691;SDS011;52411;52.716;6.696;2022-09-20T18:06:11;5.30;;;1.40;;
65691;SDS011;52411;52.716;6.696;2022-09-20T18:08:38;5.97;;;1.70;;
65691;SDS011;52411;52.716;6.696;2022-09-20T18:11:04;6.07;;;2.10;;
65691;SDS011;52411;52.716;6.696;2022-09-20T18:13:30;7.45;;;1.50;;
65691;SDS011;52411;52.716;6.696;2022-09-20T18:15:56;4.75;;;1.60;;
65691;SDS011;52411;52.716;6.696;2022-09-20T18:18:23;5.18;;;1.58;;
65691;SDS011;52411;52.716;6.696;2022-09-20T18:20:48;6.63;;;1.70;;
65691;SDS011;52411;52.716;6.696;2022-09-20T18:23:14;6.15;;;1.58;;
65691;SDS011;52411;52.716;6.696;2022-09-20T18:25:40;6.38;;;1.90;;
65691;SDS011;52411;52.716;6.696;2022-09-20T18:28:24;7.20;;;1.65;;
65691;SDS011;52411;52.716;6.696;2022-09-20T18:30:59;4.00;;;1.40;;
65691;SDS011;52411;52.716;6.696;2022-09-20T18:33:26;6.35;;;1.50;;
65691;SDS011;52411;52.716;6.696;2022-09-20T18:35:57;4.40;;;1.80;;
65691;SDS011;52411;52.716;6.696;2022-09-20T18:38:27;5.20;;;1.63;;
65691;SDS011;52411;52.716;6.696;2022-09-20T18:40:53;4.13;;;1.58;;
65691;SDS011;52411;52.716;6.696;2022-09-20T18:43:22;2.67;;;1.50;;
65691;SDS011;52411;52.716;6.696;2022-09-20T18:45:51;6.60;;;1.80;;
65691;SDS011;52411;52.716;6.696;2022-09-20T18:48:21;7.47;;;2.25;;
65691;SDS011;52411;52.716;6.696;2022-09-20T18:51:00;6.45;;;2.00;;
65691;SDS011;52411;52.716;6.696;2022-09-20T18:53:28;5.93;;;2.30;;
65691;SDS011;52411;52.716;6.696;2022-09-20T18:55:55;4.70;;;2.00;;
65691;SDS011;52411;52.716;6.696;2022-09-20T18:58:29;6.20;;;1.83;;
65691;SDS011;52411;52.716;6.696;2022-09-20T19:06:45;6.40;;;1.95;;
65691;SDS011;52411;52.716;6.696;2022-09-20T19:11:51;7.05;;;2.08;;
65691;SDS011;52411;52.716;6.696;2022-09-20T19:15:09;5.43;;;1.77;;
65691;SDS011;52411;52.716;6.696;2022-09-20T19:17:52;8.43;;;3.28;;
65691;SDS011;52411;52.716;6.696;2022-09-20T19:20:21;2.83;;;1.70;;
65691;SDS011;52411;52.716;6.696;2022-09-20T19:23:04;9.38;;;2.70;;
65691;SDS011;52411;52.716;6.696;2022-09-20T19:25:49;8.45;;;2.60;;
65691;SDS011;52411;52.716;6.696;2022-09-20T19:28:27;9.25;;;2.38;;
65691;SDS011;52411;52.716;6.696;2022-09-20T19:30:54;7.22;;;2.53;;
65691;SDS011;52411;52.716;6.696;2022-09-20T19:33:22;6.22;;;2.30;;
65691;SDS011;52411;52.716;6.696;2022-09-20T19:35:48;8.63;;;2.40;;
65691;SDS011;52411;52.716;6.696;2022-09-20T19:41:18;3.40;;;1.83;;
65691;SDS011;52411;52.716;6.696;2022-09-20T19:49:23;4.65;;;2.30;;
65691;SDS011;52411;52.716;6.696;2022-09-20T19:51:54;11.15;;;2.80;;
65691;SDS011;52411;52.716;6.696;2022-09-20T19:54:22;8.55;;;2.60;;
65691;SDS011;52411;52.716;6.696;2022-09-20T19:59:20;8.10;;;2.58;;
65691;SDS011;52411;52.716;6.696;2022-09-20T20:01:46;8.07;;;3.05;;
65691;SDS011;52411;52.716;6.696;2022-09-20T20:04:12;11.65;;;3.30;;
65691;SDS011;52411;52.716;6.696;2022-09-20T20:12:07;8.98;;;3.17;;
65691;SDS011;52411;52.716;6.696;2022-09-20T20:15:03;8.73;;;3.30;;